createdAt,value
2019-05-23T00:00:43.010Z,92.31
2019-05-23T00:03:14.833Z,92.07
2019-05-23T00:06:02.749Z,93.46
2019-05-23T00:08:37.645Z,93.79
2019-05-23T00:11:33.994Z,93.79
2019-05-23T00:14:18.441Z,94.24
2019-05-23T00:16:48.749Z,94.04
2019-05-23T00:19:18.874Z,93.66
2019-05-23T00:21:50.391Z,93.49
2019-05-23T00:24:22.340Z,93.97
2019-05-23T00:26:54.720Z,94.63
2019-05-23T00:29:26.074Z,94.63
2019-05-23T00:32:01.021Z,95.26
2019-05-23T00:34:34.415Z,95.61
2019-05-23T00:37:07.278Z,94.80
2019-05-23T00:39:38.676Z,94.80
2019-05-23T00:42:09.092Z,94.95
2019-05-23T00:44:42.323Z,95.41
2019-05-23T00:47:13.733Z,95.29
2019-05-23T00:49:43.769Z,95.71
2019-05-23T00:52:15.700Z,95.81
2019-05-23T00:54:47.347Z,94.70
2019-05-23T00:57:17.440Z,95.00
2019-05-23T00:59:47.700Z,94.95
2019-05-23T01:02:17.092Z,94.67
2019-05-23T01:04:47.792Z,94.96
2019-05-23T01:07:17.100Z,94.96
2019-05-23T01:09:46.259Z,95.78
2019-05-23T01:12:15.866Z,96.44
2019-05-23T01:14:45.548Z,96.48
2019-05-23T01:17:17.129Z,95.90
2019-05-23T01:19:47.135Z,95.90
2019-05-23T01:22:18.805Z,96.02
2019-05-23T01:24:51.577Z,95.23
2019-05-23T01:27:20.770Z,95.84
2019-05-23T01:29:51.726Z,96.41
2019-05-23T01:32:37.683Z,95.80
2019-05-23T01:35:09.033Z,95.93
2019-05-23T01:37:39.556Z,96.20
2019-05-23T01:40:09.794Z,96.20
2019-05-23T01:42:40.174Z,96.34
2019-05-23T01:45:14.210Z,96.66
2019-05-23T01:47:43.882Z,97.69
2019-05-23T01:50:14.147Z,98.01
2019-05-23T01:52:43.325Z,97.94
2019-05-23T01:55:12.951Z,97.67
2019-05-23T01:57:42.681Z,97.88
2019-05-23T02:00:15.570Z,97.88
2019-05-23T02:02:44.944Z,97.77
2019-05-23T02:05:16.785Z,98.40
2019-05-23T02:07:46.436Z,97.21
2019-05-23T02:10:17.605Z,96.76
2019-05-23T02:12:47.629Z,97.05
2019-05-23T02:15:18.222Z,96.17
2019-05-23T02:17:47.420Z,96.17
2019-05-23T02:20:19.088Z,96.35
2019-05-23T02:22:49.251Z,97.10
2019-05-23T02:25:22.928Z,97.10
2019-05-23T02:27:53.496Z,97.00
2019-05-23T02:30:33.846Z,96.57
2019-05-23T02:32:57.284Z,96.57
2019-05-23T02:35:27.006Z,95.46
2019-05-23T02:38:21.905Z,95.75
2019-05-23T02:41:02.429Z,95.75
2019-05-23T02:43:34.853Z,96.80
2019-05-23T02:46:09.302Z,97.90
2019-05-23T02:48:43.157Z,98.52
2019-05-23T02:51:23.804Z,98.91
2019-05-23T02:53:55.901Z,98.81
2019-05-23T02:56:29.497Z,99.11
2019-05-23T02:59:33.443Z,99.01
2019-05-23T03:02:49.083Z,97.67
2019-05-23T03:05:25.006Z,96.76
2019-05-23T03:07:54.305Z,98.02
2019-05-23T03:10:24.339Z,98.54
2019-05-23T03:12:55.787Z,98.19
2019-05-23T03:15:32.124Z,97.03
2019-05-23T03:18:08.185Z,96.79
2019-05-23T03:20:39.206Z,97.83
2019-05-23T03:23:17.652Z,98.64
2019-05-23T03:26:36.477Z,99.00
2019-05-23T03:29:08.624Z,99.00
2019-05-23T03:31:46.695Z,100.00
2019-05-23T03:34:20.354Z,99.31
2019-05-23T03:36:51.260Z,99.31
2019-05-23T03:39:20.758Z,100.00
2019-05-23T03:41:51.687Z,99.54
2019-05-23T03:44:20.809Z,99.51
2019-05-23T03:46:52.772Z,100.00
2019-05-23T03:49:21.940Z,100.00
2019-05-23T03:51:51.101Z,100.00
2019-05-23T03:54:20.982Z,100.00
2019-05-23T03:56:52.423Z,100.00
2019-05-23T03:59:22.552Z,100.00
2019-05-23T04:01:54.789Z,95.95
2019-05-23T04:04:24.655Z,99.10
2019-05-23T04:06:54.946Z,100.00
2019-05-23T04:09:24.292Z,99.51
2019-05-23T04:11:53.553Z,99.01
2019-05-23T04:14:23.103Z,98.14
2019-05-23T04:16:54.034Z,96.66
2019-05-23T04:19:23.531Z,97.01
2019-05-23T04:21:53.490Z,96.29
2019-05-23T04:24:24.167Z,98.29
2019-05-23T04:26:53.762Z,97.27
2019-05-23T04:29:23.130Z,96.48
2019-05-23T04:32:07.161Z,96.11
2019-05-23T04:34:26.857Z,95.88
2019-05-23T04:36:59.216Z,94.72
2019-05-23T04:39:30.682Z,94.53
2019-05-23T04:41:59.925Z,93.98
2019-05-23T04:44:29.696Z,93.64
2019-05-23T04:47:00.404Z,94.40
2019-05-23T04:49:31.346Z,94.66
2019-05-23T04:52:02.599Z,93.45
2019-05-23T04:54:32.655Z,93.33
2019-05-23T04:57:06.448Z,94.01
2019-05-23T04:59:36.426Z,93.65
2019-05-23T05:02:24.757Z,93.65
2019-05-23T05:04:40.673Z,94.81
2019-05-23T05:07:12.914Z,94.81
2019-05-23T05:09:44.493Z,92.30
2019-05-23T05:12:18.482Z,92.30
2019-05-23T05:14:49.132Z,93.20
2019-05-23T05:17:18.888Z,92.36
2019-05-23T05:19:48.267Z,92.43
2019-05-23T05:22:18.479Z,92.35
2019-05-23T05:24:49.169Z,91.77
2019-05-23T05:27:19.608Z,92.54
2019-05-23T05:29:50.319Z,92.54
